Time;durP1;ratioP1;P1;durP2;ratioP2;P2;SDS_P1;SDS_P2;PMS_P1;PMS_P2;Temp;Humidity;BMP_temperature;BMP_pressure;BME280_temperature;BME280_humidity;BME280_pressure;Samples;Min_cycle;Max_cycle;Signal;HPM_P1;HPM_P2
2021/05/13 00:00:13;;;;;;;11.23;7.05;;;;;;;-144.13;100.00;64086.75;5051964;28;20029;-79
2021/05/13 00:02:39;;;;;;;10.93;7.25;;;;;;;-144.13;100.00;64086.75;5049140;28;20029;-80
2021/05/13 00:05:06;;;;;;;11.57;6.15;;;;;;;-144.13;100.00;64086.75;5036237;28;20483;-80
2021/05/13 00:07:31;;;;;;;10.27;6.22;;;;;;;-144.13;100.00;64086.75;5030110;28;20372;-80
2021/05/13 00:09:57;;;;;;;12.45;6.00;;;;;;;-144.13;100.00;64086.75;5058389;28;20079;-80
2021/05/13 00:12:40;;;;;;;8.48;5.88;;;;;;;-144.13;100.00;64086.75;5035870;28;20079;-80
2021/05/13 00:15:10;;;;;;;9.10;5.60;;;;;;;-144.13;100.00;64086.75;5026842;28;20614;-80
2021/05/13 00:17:36;;;;;;;8.02;5.20;;;;;;;-144.13;100.00;64086.75;5048357;28;20081;-80
2021/05/13 00:20:06;;;;;;;12.20;6.70;;;;;;;-144.13;100.00;64086.75;5037019;28;20044;-79
2021/05/13 00:22:31;;;;;;;11.98;5.68;;;;;;;-144.13;100.00;64086.75;5050556;28;20028;-80
2021/05/13 00:24:59;;;;;;;10.13;6.35;;;;;;;-144.13;100.00;64086.75;5045466;28;20116;-80
2021/05/13 00:27:25;;;;;;;9.68;5.30;;;;;;;-144.13;100.00;64086.75;5037730;28;20895;-80
2021/05/13 00:29:50;;;;;;;9.27;6.05;;;;;;;-144.13;100.00;64086.75;5051921;28;20048;-79
2021/05/13 00:32:16;;;;;;;8.32;5.53;;;;;;;-144.13;100.00;64086.75;5043851;28;20047;-80
2021/05/13 00:34:41;;;;;;;9.45;6.05;;;;;;;-144.13;100.00;64086.75;5051564;28;20017;-80
2021/05/13 00:37:07;;;;;;;9.02;6.15;;;;;;;-144.13;100.00;64086.75;5035031;28;20024;-80
2021/05/13 00:39:32;;;;;;;9.90;5.72;;;;;;;-144.13;100.00;64086.75;5042247;28;20013;-80
2021/05/13 00:41:58;;;;;;;9.68;5.88;;;;;;;-144.13;100.00;64086.75;5050526;28;20131;-80
2021/05/13 00:44:24;;;;;;;9.73;6.43;;;;;;;-144.13;100.00;64086.75;5047616;28;20026;-80
2021/05/13 00:46:49;;;;;;;9.52;6.18;;;;;;;-144.13;100.00;64086.75;5036268;28;20033;-79
2021/05/13 00:49:16;;;;;;;9.32;6.10;;;;;;;-144.13;100.00;64086.75;5056256;28;20678;-80
2021/05/13 00:51:41;;;;;;;7.85;5.70;;;;;;;-144.13;100.00;64086.75;5052485;28;20039;-79
2021/05/13 00:54:07;;;;;;;13.85;6.50;;;;;;;-144.13;100.00;64086.75;5034040;28;20016;-80
2021/05/13 00:56:33;;;;;;;8.65;5.70;;;;;;;-144.13;100.00;64086.75;5051624;28;20040;-80
2021/05/13 00:59:04;;;;;;;8.98;5.38;;;;;;;-144.13;100.00;64086.75;5048600;28;20036;-80
2021/05/13 01:04:12;;;;;;;10.52;7.40;;;;;;;-144.13;100.00;64086.75;5049937;28;20044;-80
2021/05/13 01:06:37;;;;;;;8.77;5.63;;;;;;;-144.13;100.00;64086.75;5036366;28;20036;-80
2021/05/13 01:09:09;;;;;;;10.20;5.63;;;;;;;-144.13;100.00;64086.75;5054802;28;20391;-80
2021/05/13 01:11:41;;;;;;;19.77;7.10;;;;;;;-144.13;100.00;64086.75;5047320;28;20025;-80
2021/05/13 01:16:47;;;;;;;14.65;8.60;;;;;;;-144.13;100.00;64086.75;5058866;28;20155;-80
2021/05/13 01:19:15;;;;;;;13.05;7.82;;;;;;;-144.13;100.00;64086.75;5055476;28;20063;-80
2021/05/13 01:21:40;;;;;;;13.88;8.02;;;;;;;-144.13;100.00;64086.75;5050156;28;20021;-80
2021/05/13 01:24:06;;;;;;;13.40;7.93;;;;;;;-144.13;100.00;64086.75;5056145;28;20029;-80
2021/05/13 01:26:32;;;;;;;18.02;8.93;;;;;;;-144.13;100.00;64086.75;5032302;28;20020;-80
2021/05/13 01:28:59;;;;;;;13.65;8.80;;;;;;;-144.13;100.00;64086.75;5041617;28;20087;-80
2021/05/13 01:31:24;;;;;;;13.63;8.82;;;;;;;-144.13;100.00;64086.75;5054927;28;20032;-80
2021/05/13 01:33:50;;;;;;;17.95;8.18;;;;;;;-144.13;100.00;64086.75;5055139;28;20031;-80
2021/05/13 01:36:15;;;;;;;16.60;8.68;;;;;;;-144.13;100.00;64086.75;5054521;28;20075;-80
2021/05/13 01:38:41;;;;;;;16.25;8.73;;;;;;;-144.13;100.00;64086.75;5049634;28;20976;-80
2021/05/13 01:41:07;;;;;;;18.05;9.27;;;;;;;-144.13;100.00;64086.75;5034826;28;20028;-80
2021/05/13 01:43:33;;;;;;;16.42;8.85;;;;;;;-144.13;100.00;64086.75;5055464;28;20468;-80
2021/05/13 01:46:00;;;;;;;17.77;9.15;;;;;;;-144.13;100.00;64086.75;5052302;28;20039;-80
2021/05/13 01:48:27;;;;;;;15.88;9.40;;;;;;;-144.13;100.00;64086.75;5047673;28;20082;-80
2021/05/13 01:50:52;;;;;;;15.02;8.18;;;;;;;-144.13;100.00;64086.75;5040297;28;20024;-79
2021/05/13 01:53:18;;;;;;;16.73;7.97;;;;;;;-144.13;100.00;64086.75;5036059;28;20049;-81
2021/05/13 01:55:44;;;;;;;15.30;8.52;;;;;;;-144.13;100.00;64086.75;5033292;28;20032;-80
2021/05/13 01:58:10;;;;;;;14.70;7.95;;;;;;;-144.13;100.00;64086.75;5035048;28;20119;-80
2021/05/13 02:00:39;;;;;;;18.27;8.80;;;;;;;-144.13;100.00;64086.75;5035399;28;20032;-80
2021/05/13 02:03:05;;;;;;;16.10;8.27;;;;;;;-144.13;100.00;64086.75;5035285;28;20029;-80
2021/05/13 02:05:31;;;;;;;14.52;8.13;;;;;;;-144.13;100.00;64086.75;5051098;28;20032;-80
2021/05/13 02:07:57;;;;;;;15.43;9.10;;;;;;;-144.13;100.00;64086.75;5033827;28;20212;-80
2021/05/13 02:10:23;;;;;;;18.83;9.38;;;;;;;-144.13;100.00;64086.75;5050661;28;20034;-80
2021/05/13 02:12:49;;;;;;;15.98;8.82;;;;;;;-144.13;100.00;64086.75;5033278;28;20037;-80
2021/05/13 02:15:19;;;;;;;16.13;9.30;;;;;;;-144.13;100.00;64086.75;5038446;28;20020;-80
2021/05/13 02:17:45;;;;;;;14.50;8.75;;;;;;;-144.13;100.00;64086.75;5053592;28;20115;-80
2021/05/13 02:20:17;;;;;;;13.88;8.57;;;;;;;-144.13;100.00;64086.75;5031439;28;20082;-80
2021/05/13 02:22:42;;;;;;;15.73;10.00;;;;;;;-144.13;100.00;64086.75;5050225;28;20387;-80
2021/05/13 02:25:09;;;;;;;18.65;9.65;;;;;;;-144.13;100.00;64086.75;5054061;28;20037;-80
2021/05/13 02:27:36;;;;;;;17.80;10.45;;;;;;;-144.13;100.00;64086.75;5033366;28;20020;-80
2021/05/13 02:30:04;;;;;;;16.80;10.82;;;;;;;-144.13;100.00;64086.75;5036608;28;20060;-80
2021/05/13 02:32:29;;;;;;;16.65;10.98;;;;;;;-144.13;100.00;64086.75;5049467;28;20024;-80
2021/05/13 02:34:55;;;;;;;23.00;12.55;;;;;;;-144.13;100.00;64086.75;5026350;28;20074;-80
2021/05/13 02:37:20;;;;;;;17.92;11.93;;;;;;;-144.13;100.00;64086.75;5033878;28;20478;-80
2021/05/13 02:39:47;;;;;;;25.63;13.70;;;;;;;-144.13;100.00;64086.75;5029761;28;20555;-80
2021/05/13 02:42:13;;;;;;;20.17;14.27;;;;;;;-144.13;100.00;64086.75;5034501;28;20587;-80
2021/05/13 02:44:38;;;;;;;22.48;14.65;;;;;;;-144.13;100.00;64086.75;5058326;28;20027;-80
2021/05/13 02:47:04;;;;;;;24.02;16.05;;;;;;;-144.13;100.00;64086.75;5039999;28;20483;-80
2021/05/13 02:49:29;;;;;;;26.42;14.82;;;;;;;-144.13;100.00;64086.75;5051619;28;20024;-80
2021/05/13 02:51:55;;;;;;;22.42;13.65;;;;;;;-144.13;100.00;64086.75;5032976;28;20024;-80
2021/05/13 02:54:21;;;;;;;22.80;14.75;;;;;;;-144.13;100.00;64086.75;5048020;28;20101;-80
2021/05/13 02:56:46;;;;;;;21.90;13.88;;;;;;;-144.13;100.00;64086.75;5028226;28;20120;-80
2021/05/13 02:59:13;;;;;;;22.58;14.65;;;;;;;-144.13;100.00;64086.75;5048768;28;20099;-80
2021/05/13 03:01:39;;;;;;;25.55;15.20;;;;;;;-144.13;100.00;64086.75;5049956;28;20024;-80
2021/05/13 03:04:04;;;;;;;21.67;13.65;;;;;;;-144.13;100.00;64086.75;5055566;28;20028;-80
2021/05/13 03:06:30;;;;;;;24.50;14.90;;;;;;;-144.13;100.00;64086.75;5060125;28;20093;-80
2021/05/13 03:08:57;;;;;;;25.92;14.27;;;;;;;-144.13;100.00;64086.75;5053377;28;20028;-80
2021/05/13 03:11:23;;;;;;;27.73;14.65;;;;;;;-144.13;100.00;64086.75;5035600;28;20029;-80
2021/05/13 03:13:52;;;;;;;25.02;14.93;;;;;;;-144.13;100.00;64086.75;5052731;28;20029;-80
2021/05/13 03:16:18;;;;;;;22.20;13.98;;;;;;;-144.13;100.00;64086.75;5055844;28;20024;-80
2021/05/13 03:18:48;;;;;;;24.00;14.13;;;;;;;-144.13;100.00;64086.75;5051734;28;20031;-80
2021/05/13 03:26:16;;;;;;;26.08;14.73;;;;;;;-144.13;100.00;64086.75;5045995;28;20053;-80
2021/05/13 03:28:42;;;;;;;23.65;15.20;;;;;;;-144.13;100.00;64086.75;5054156;28;20060;-80
2021/05/13 03:31:08;;;;;;;26.70;15.27;;;;;;;-144.13;100.00;64086.75;5031732;28;20024;-80
2021/05/13 03:33:33;;;;;;;28.08;16.08;;;;;;;-144.13;100.00;64086.75;5049675;28;20057;-80
2021/05/13 03:35:59;;;;;;;25.92;15.27;;;;;;;-144.13;100.00;64086.75;5049691;28;20047;-80
2021/05/13 03:38:24;;;;;;;22.15;15.05;;;;;;;-144.13;100.00;64086.75;5038724;28;20487;-80
2021/05/13 03:40:50;;;;;;;27.05;15.77;;;;;;;-144.13;100.00;64086.75;5031613;28;20068;-80
2021/05/13 03:43:16;;;;;;;27.60;15.90;;;;;;;-144.13;100.00;64086.75;5053162;28;20051;-80
2021/05/13 03:45:41;;;;;;;33.72;16.40;;;;;;;-144.13;100.00;64086.75;5053841;28;20043;-80
2021/05/13 03:48:07;;;;;;;28.75;16.88;;;;;;;-144.13;100.00;64086.75;5035000;28;20048;-81
2021/05/13 03:50:35;;;;;;;31.67;16.73;;;;;;;-144.13;100.00;64086.75;5056956;28;20029;-80
2021/05/13 03:53:02;;;;;;;31.75;18.45;;;;;;;-144.13;100.00;64086.75;5040860;28;20036;-80
2021/05/13 03:55:28;;;;;;;52.33;28.65;;;;;;;-144.13;100.00;64086.75;5053325;28;20378;-80
2021/05/13 03:57:56;;;;;;;41.25;21.92;;;;;;;-144.13;100.00;64086.75;5034796;28;20016;-80
2021/05/13 04:00:29;;;;;;;39.70;21.70;;;;;;;-144.13;100.00;64086.75;5046979;28;20667;-80
2021/05/13 04:02:55;;;;;;;45.50;27.52;;;;;;;-144.13;100.00;64086.75;5037008;28;20553;-80
2021/05/13 04:05:20;;;;;;;54.47;30.60;;;;;;;-144.13;100.00;64086.75;5041381;28;20017;-80
2021/05/13 04:07:48;;;;;;;48.20;25.38;;;;;;;-144.13;100.00;64086.75;5056873;28;20560;-80
2021/05/13 04:10:13;;;;;;;38.50;20.10;;;;;;;-144.13;100.00;64086.75;5058874;28;20083;-80
2021/05/13 04:12:40;;;;;;;38.70;19.73;;;;;;;-144.13;100.00;64086.75;5038183;28;20024;-80
2021/05/13 04:15:08;;;;;;;31.90;16.33;;;;;;;-144.13;100.00;64086.75;5051605;28;20017;-80
2021/05/13 04:17:33;;;;;;;25.67;15.23;;;;;;;-144.13;100.00;64086.75;5048540;28;20028;-80
2021/05/13 04:19:59;;;;;;;23.33;14.32;;;;;;;-144.13;100.00;64086.75;5029487;28;20079;-80
2021/05/13 04:22:25;;;;;;;26.10;14.90;;;;;;;-144.13;100.00;64086.75;5057284;28;20024;-80
2021/05/13 04:24:50;;;;;;;25.27;14.52;;;;;;;-144.13;100.00;64086.75;5067254;22;20041;-46
2021/05/13 04:27:16;;;;;;;27.13;14.25;;;;;;;-144.13;100.00;64086.75;5042455;28;20394;-46
2021/05/13 04:29:41;;;;;;;27.35;14.85;;;;;;;-144.13;100.00;64086.75;5045542;28;20033;-47
2021/05/13 04:32:07;;;;;;;26.92;14.45;;;;;;;-144.13;100.00;64086.75;5047827;28;20025;-46
2021/05/13 04:34:32;;;;;;;24.95;13.50;;;;;;;-144.13;100.00;64086.75;5046864;28;20020;-46
2021/05/13 04:36:57;;;;;;;23.80;13.13;;;;;;;-144.13;100.00;64086.75;5047049;28;20036;-46
2021/05/13 04:39:23;;;;;;;20.90;12.23;;;;;;;-144.13;100.00;64086.75;5068061;23;20063;-84
2021/05/13 04:41:51;;;;;;;26.45;13.68;;;;;;;-144.13;100.00;64086.75;5085528;28;20021;-84
2021/05/13 04:44:16;;;;;;;24.77;12.85;;;;;;;-144.13;100.00;64086.75;5084421;28;20053;-83
2021/05/13 04:46:42;;;;;;;22.08;13.18;;;;;;;-144.13;100.00;64086.75;5088176;28;20059;-83
2021/05/13 04:51:34;;;;;;;21.48;13.00;;;;;;;-144.13;100.00;64086.75;5088267;28;20104;-83
2021/05/13 04:54:00;;;;;;;21.55;13.65;;;;;;;-144.13;100.00;64086.75;5081745;28;20031;-83
2021/05/13 04:56:26;;;;;;;19.25;11.70;;;;;;;-144.13;100.00;64086.75;5072892;28;20038;-82
2021/05/13 04:58:52;;;;;;;22.35;12.57;;;;;;;-144.13;100.00;64086.75;5069986;28;20412;-83
2021/05/13 05:01:19;;;;;;;21.80;12.60;;;;;;;-144.13;100.00;64086.75;5071319;28;20031;-84
2021/05/13 05:03:46;;;;;;;21.73;11.70;;;;;;;-144.13;100.00;64086.75;5074523;28;20089;-84
2021/05/13 05:06:12;;;;;;;18.63;11.40;;;;;;;-144.13;100.00;64086.75;5078908;28;20235;-83
2021/05/13 05:08:43;;;;;;;19.20;10.57;;;;;;;-144.13;100.00;64086.75;5077732;28;20062;-84
2021/05/13 05:11:08;;;;;;;21.05;11.27;;;;;;;-144.13;100.00;64086.75;5077557;28;20105;-84
2021/05/13 05:13:34;;;;;;;21.45;12.15;;;;;;;-144.13;100.00;64086.75;5069098;28;20103;-84
2021/05/13 05:16:00;;;;;;;18.85;12.02;;;;;;;-144.13;100.00;64086.75;5072552;28;20073;-83
2021/05/13 05:18:27;;;;;;;19.67;11.52;;;;;;;-144.13;100.00;64086.75;5070929;28;20046;-83
2021/05/13 05:20:53;;;;;;;21.63;11.57;;;;;;;-144.13;100.00;64086.75;5070132;28;20012;-84
2021/05/13 05:23:20;;;;;;;22.65;11.77;;;;;;;-144.13;100.00;64086.75;5070961;28;20051;-82
2021/05/13 05:25:46;;;;;;;21.15;11.30;;;;;;;-144.13;100.00;64086.75;5069326;28;20024;-84
2021/05/13 05:28:12;;;;;;;20.40;11.55;;;;;;;-144.13;100.00;64086.75;5084515;28;20035;-83
2021/05/13 05:30:39;;;;;;;21.40;12.18;;;;;;;-144.13;100.00;64086.75;5069810;28;20493;-82
2021/05/13 05:33:06;;;;;;;17.05;10.02;;;;;;;-144.13;100.00;64086.75;5073939;28;20057;-84
2021/05/13 05:35:36;;;;;;;15.80;10.38;;;;;;;-144.13;100.00;64086.75;5074099;28;20020;-85
2021/05/13 05:38:02;;;;;;;20.80;10.98;;;;;;;-144.13;100.00;64086.75;5080065;28;20154;-84
2021/05/13 05:40:28;;;;;;;22.52;10.35;;;;;;;-144.13;100.00;64086.75;5071686;28;20390;-83
2021/05/13 05:42:53;;;;;;;18.55;10.45;;;;;;;-144.13;100.00;64086.75;5076540;28;20031;-84
2021/05/13 05:45:20;;;;;;;16.35;9.60;;;;;;;-144.13;100.00;64086.75;5068942;28;20031;-83
2021/05/13 05:47:47;;;;;;;16.63;10.45;;;;;;;-144.13;100.00;64086.75;5071507;28;20116;-84
2021/05/13 05:50:13;;;;;;;18.30;10.93;;;;;;;-144.13;100.00;64086.75;5073798;28;20032;-84
2021/05/13 05:52:39;;;;;;;17.23;9.82;;;;;;;-144.13;100.00;64086.75;5066322;28;20059;-85
2021/05/13 05:55:06;;;;;;;17.98;9.38;;;;;;;-144.13;100.00;64086.75;5065310;28;20056;-84
2021/05/13 05:57:31;;;;;;;21.20;11.35;;;;;;;-144.13;100.00;64086.75;5072106;28;20144;-84
2021/05/13 05:59:58;;;;;;;19.17;10.05;;;;;;;-144.13;100.00;64086.75;5076032;28;20115;-84
2021/05/13 06:02:26;;;;;;;21.02;10.70;;;;;;;-144.13;100.00;64086.75;5072469;28;20024;-84
2021/05/13 06:04:52;;;;;;;22.67;10.35;;;;;;;-144.13;100.00;64086.75;5064198;28;20032;-84
2021/05/13 06:07:19;;;;;;;19.63;11.05;;;;;;;-144.13;100.00;64086.75;5076840;22;20518;-46
2021/05/13 06:09:45;;;;;;;15.40;9.68;;;;;;;-144.13;100.00;64086.75;5058713;28;20028;-46
2021/05/13 06:12:11;;;;;;;15.18;9.40;;;;;;;-144.13;100.00;64086.75;5071305;28;20025;-46
2021/05/13 06:14:36;;;;;;;18.60;9.88;;;;;;;-144.13;100.00;64086.75;5057923;28;20475;-46
2021/05/13 06:17:02;;;;;;;19.70;10.30;;;;;;;-144.13;100.00;64086.75;5060990;28;20042;-45
2021/05/13 06:19:27;;;;;;;20.45;10.90;;;;;;;-144.13;100.00;64086.75;5060625;28;20659;-46
2021/05/13 06:21:53;;;;;;;20.35;11.38;;;;;;;-144.13;100.00;64086.75;5051187;23;20526;-82
2021/05/13 06:24:19;;;;;;;18.63;10.45;;;;;;;-144.13;100.00;64086.75;5024209;28;20033;-82
2021/05/13 06:26:57;;;;;;;21.23;10.68;;;;;;;-144.13;100.00;64086.75;5064318;28;20505;-83
2021/05/13 06:29:22;;;;;;;18.55;10.52;;;;;;;-144.13;100.00;64086.75;5066875;28;20016;-83
2021/05/13 06:31:48;;;;;;;23.02;10.77;;;;;;;-144.13;100.00;64086.75;5047756;28;20050;-84
2021/05/13 06:34:13;;;;;;;19.60;9.68;;;;;;;-144.13;100.00;64086.75;5064508;28;20120;-83
2021/05/13 06:36:40;;;;;;;19.13;10.25;;;;;;;-144.13;100.00;64086.75;5069829;28;20387;-82
2021/05/13 06:39:06;;;;;;;16.35;9.60;;;;;;;-144.13;100.00;64086.75;5061635;28;20050;-84
2021/05/13 06:41:32;;;;;;;17.30;8.93;;;;;;;-144.13;100.00;64086.75;5059654;28;20389;-83
2021/05/13 06:43:57;;;;;;;14.98;8.73;;;;;;;-144.13;100.00;64086.75;5068555;28;20035;-83
2021/05/13 06:46:24;;;;;;;18.25;9.65;;;;;;;-144.13;100.00;64086.75;5059820;28;20024;-83
2021/05/13 06:48:51;;;;;;;14.38;8.50;;;;;;;-144.13;100.00;64086.75;5068878;28;20367;-82
2021/05/13 06:51:18;;;;;;;17.40;8.93;;;;;;;-144.13;100.00;64086.75;5054007;28;20058;-84
2021/05/13 06:53:43;;;;;;;16.02;8.95;;;;;;;-144.13;100.00;64086.75;5062955;28;20053;-83
2021/05/13 06:56:09;;;;;;;11.95;7.65;;;;;;;-144.13;100.00;64086.75;5060663;28;20050;-82
2021/05/13 06:58:34;;;;;;;13.85;7.88;;;;;;;-144.13;100.00;64086.75;5068040;28;20046;-83
2021/05/13 07:01:00;;;;;;;13.25;7.88;;;;;;;-144.13;100.00;64086.75;5053813;28;20544;-82
2021/05/13 07:03:25;;;;;;;16.63;8.43;;;;;;;-144.13;100.00;64086.75;5053139;28;20033;-82
2021/05/13 07:05:53;;;;;;;10.90;7.15;;;;;;;-144.13;100.00;64086.75;5061219;28;20031;-82
2021/05/13 07:08:18;;;;;;;12.07;6.97;;;;;;;-144.13;100.00;64086.75;5062613;28;20020;-82
2021/05/13 07:10:44;;;;;;;10.60;6.50;;;;;;;-144.13;100.00;64086.75;5074657;28;20474;-82
2021/05/13 07:13:10;;;;;;;11.48;6.68;;;;;;;-144.13;100.00;64086.75;5071250;28;20035;-83
2021/05/13 07:15:35;;;;;;;10.85;6.47;;;;;;;-144.13;100.00;64086.75;5048857;28;20074;-82
2021/05/13 07:18:01;;;;;;;12.38;6.38;;;;;;;-144.13;100.00;64086.75;5049272;28;20021;-82
2021/05/13 07:20:27;;;;;;;10.73;6.25;;;;;;;-144.13;100.00;64086.75;5052179;28;20112;-82
2021/05/13 07:22:53;;;;;;;8.55;5.15;;;;;;;-144.13;100.00;64086.75;5080644;28;20060;-81
2021/05/13 07:25:19;;;;;;;8.30;5.53;;;;;;;-144.13;100.00;64086.75;5057537;28;20053;-81
2021/05/13 07:27:45;;;;;;;7.72;4.82;;;;;;;-144.13;100.00;64086.75;5060875;28;20438;-82
2021/05/13 07:30:12;;;;;;;8.75;5.55;;;;;;;-144.13;100.00;64086.75;5044483;28;20096;-82
2021/05/13 07:32:38;;;;;;;9.25;5.72;;;;;;;-144.13;100.00;64086.75;5048326;28;20489;-82
2021/05/13 07:35:05;;;;;;;9.13;5.30;;;;;;;-144.13;100.00;64086.75;5065459;28;20025;-81
2021/05/13 07:37:31;;;;;;;13.68;5.65;;;;;;;-144.13;100.00;64086.75;5066990;28;20024;-81
2021/05/13 07:39:57;;;;;;;7.47;4.78;;;;;;;-144.13;100.00;64086.75;5061029;28;20031;-81
2021/05/13 07:42:22;;;;;;;8.75;5.03;;;;;;;-144.13;100.00;64086.75;5054929;28;20031;-81
2021/05/13 07:44:48;;;;;;;8.20;5.05;;;;;;;-144.13;100.00;64086.75;5066911;28;20538;-81
2021/05/13 07:47:14;;;;;;;7.75;4.40;;;;;;;-144.13;100.00;64086.75;5071163;28;20118;-81
2021/05/13 07:49:39;;;;;;;6.03;4.43;;;;;;;-144.13;100.00;64086.75;5075146;28;20028;-81
2021/05/13 07:52:05;;;;;;;7.35;4.20;;;;;;;-144.13;100.00;64086.75;5071157;28;20676;-82
2021/05/13 07:54:31;;;;;;;5.80;3.90;;;;;;;-144.13;100.00;64086.75;5051455;28;20024;-81
2021/05/13 07:56:56;;;;;;;5.93;4.18;;;;;;;-144.13;100.00;64086.75;5050660;28;20090;-81
2021/05/13 07:59:22;;;;;;;6.95;4.60;;;;;;;-144.13;100.00;64086.75;5077114;28;21874;-81
2021/05/13 08:01:47;;;;;;;6.97;4.20;;;;;;;-144.13;100.00;64086.75;5051991;28;20513;-81
2021/05/13 08:04:13;;;;;;;6.22;3.90;;;;;;;-144.13;100.00;64086.75;5065256;28;20064;-81
2021/05/13 08:06:38;;;;;;;6.43;4.50;;;;;;;-144.13;100.00;64086.75;5053012;28;20032;-81
2021/05/13 08:09:04;;;;;;;5.20;3.65;;;;;;;-144.13;100.00;64086.75;5069485;28;20032;-80
2021/05/13 08:11:30;;;;;;;10.18;4.60;;;;;;;-144.13;100.00;64086.75;5056002;28;20071;-81
2021/05/13 08:13:55;;;;;;;8.35;5.20;;;;;;;-144.13;100.00;64086.75;5048087;28;20028;-81
2021/05/13 08:16:21;;;;;;;8.27;4.50;;;;;;;-144.13;100.00;64086.75;5049431;28;20029;-81
2021/05/13 08:18:46;;;;;;;7.53;4.78;;;;;;;-144.13;100.00;64086.75;5074006;28;20078;-81
2021/05/13 08:21:12;;;;;;;8.75;4.43;;;;;;;-144.13;100.00;64086.75;5056594;28;20103;-82
2021/05/13 08:23:37;;;;;;;8.38;4.90;;;;;;;-144.13;100.00;64086.75;5075000;28;20818;-81
2021/05/13 08:26:03;;;;;;;9.43;6.25;;;;;;;-144.13;100.00;64086.75;5072037;28;20032;-81
2021/05/13 08:28:28;;;;;;;12.40;6.22;;;;;;;-144.13;100.00;64086.75;5053659;28;20075;-81
2021/05/13 08:30:54;;;;;;;10.80;6.53;;;;;;;-144.13;100.00;64086.75;5067851;28;20067;-82
2021/05/13 08:33:19;;;;;;;18.83;11.68;;;;;;;-144.13;100.00;64086.75;5068325;28;20077;-81
2021/05/13 08:35:45;;;;;;;12.38;7.15;;;;;;;-144.13;100.00;64086.75;5052918;28;20056;-81
2021/05/13 08:38:10;;;;;;;9.52;6.05;;;;;;;-144.13;100.00;64086.75;5068489;28;20478;-81
2021/05/13 08:40:36;;;;;;;9.73;5.53;;;;;;;-144.13;100.00;64086.75;5053043;28;20032;-81
2021/05/13 08:43:02;;;;;;;9.48;6.03;;;;;;;-144.13;100.00;64086.75;5053155;28;20028;-82
2021/05/13 08:45:29;;;;;;;12.40;6.78;;;;;;;-144.13;100.00;64086.75;5059339;28;20058;-81
2021/05/13 08:47:55;;;;;;;8.73;5.70;;;;;;;-144.13;100.00;64086.75;5046384;28;20410;-81
2021/05/13 08:50:42;;;;;;;11.27;5.88;;;;;;;-144.13;100.00;64086.75;5051869;28;20032;-81
2021/05/13 08:53:08;;;;;;;16.10;6.35;;;;;;;-144.13;100.00;64086.75;5055207;28;20490;-81
2021/05/13 08:55:35;;;;;;;9.73;6.32;;;;;;;-144.13;100.00;64086.75;5051742;28;20025;-81
2021/05/13 09:01:23;;;;;;;12.13;6.68;;;;;;;-144.13;100.00;64086.75;5067817;28;20090;-81
2021/05/13 09:03:51;;;;;;;11.45;6.25;;;;;;;-144.13;100.00;64086.75;5059955;28;20396;-82
2021/05/13 09:06:36;;;;;;;9.65;5.65;;;;;;;-144.13;100.00;64086.75;5043553;28;20095;-81
2021/05/13 09:09:13;;;;;;;10.18;6.60;;;;;;;-144.13;100.00;64086.75;5046680;28;20123;-81
2021/05/13 09:11:56;;;;;;;9.60;5.68;;;;;;;-144.13;100.00;64086.75;5058976;28;20021;-82
2021/05/13 09:14:27;;;;;;;11.93;6.35;;;;;;;-144.13;100.00;64086.75;5067123;28;20166;-81
2021/05/13 09:16:55;;;;;;;12.50;6.50;;;;;;;-144.13;100.00;64086.75;5048013;28;20843;-81
2021/05/13 09:19:28;;;;;;;10.95;6.35;;;;;;;-144.13;100.00;64086.75;5065006;28;20036;-81
2021/05/13 09:22:06;;;;;;;10.40;5.80;;;;;;;-144.13;100.00;64086.75;5066333;28;20068;-82
2021/05/13 09:24:58;;;;;;;7.75;5.55;;;;;;;-144.13;100.00;64086.75;5045284;28;20354;-81
2021/05/13 09:27:47;;;;;;;9.18;6.18;;;;;;;-144.13;100.00;64086.75;5062014;28;20036;-81
2021/05/13 09:30:24;;;;;;;10.15;6.57;;;;;;;-144.13;100.00;64086.75;5049043;28;21936;-82
2021/05/13 09:33:09;;;;;;;11.10;6.40;;;;;;;-144.13;100.00;64086.75;5069566;28;20601;-82
2021/05/13 09:35:37;;;;;;;12.40;7.72;;;;;;;-144.13;100.00;64086.75;5044477;28;20394;-81
2021/05/13 09:38:07;;;;;;;14.63;8.82;;;;;;;-144.13;100.00;64086.75;5046942;28;20044;-82
2021/05/13 09:40:52;;;;;;;14.57;7.65;;;;;;;-144.13;100.00;64086.75;5042489;28;20033;-81
2021/05/13 09:43:22;;;;;;;15.67;8.13;;;;;;;-144.13;100.00;64086.75;5065157;28;20032;-81
2021/05/13 09:45:56;;;;;;;13.07;7.40;;;;;;;-144.13;100.00;64086.75;5050907;28;20494;-81
2021/05/13 09:48:44;;;;;;;11.13;6.90;;;;;;;-144.13;100.00;64086.75;5061427;28;20027;-82
2021/05/13 09:51:39;;;;;;;10.80;6.97;;;;;;;-144.13;100.00;64086.75;5045085;28;20086;-82
2021/05/13 09:54:15;;;;;;;13.82;6.85;;;;;;;-144.13;100.00;64086.75;5041557;28;20074;-82
2021/05/13 09:56:49;;;;;;;13.60;8.35;;;;;;;-144.13;100.00;64086.75;5072603;28;20036;-82
2021/05/13 10:02:53;;;;;;;11.90;5.72;;;;;;;-144.13;100.00;64086.75;5023336;28;20518;-82
2021/05/13 10:05:18;;;;;;;9.23;5.90;;;;;;;-144.13;100.00;64086.75;5051941;28;20045;-81
2021/05/13 10:07:44;;;;;;;11.02;5.85;;;;;;;-144.13;100.00;64086.75;5052579;28;20025;-81
2021/05/13 10:10:10;;;;;;;10.18;6.68;;;;;;;-144.13;100.00;64086.75;5055629;28;20028;-81
2021/05/13 10:12:36;;;;;;;9.57;5.63;;;;;;;-144.13;100.00;64086.75;5061342;28;20033;-82
2021/05/13 10:15:03;;;;;;;8.32;5.80;;;;;;;-144.13;100.00;64086.75;5062936;28;20025;-81
2021/05/13 10:17:29;;;;;;;9.38;6.07;;;;;;;-144.13;100.00;64086.75;5047023;28;20141;-81
2021/05/13 10:19:56;;;;;;;10.65;5.60;;;;;;;-144.13;100.00;64086.75;5052802;28;20033;-80
2021/05/13 10:22:22;;;;;;;8.07;5.07;;;;;;;-144.13;100.00;64086.75;5054115;28;20649;-80
2021/05/13 10:25:17;;;;;;;10.73;6.07;;;;;;;-144.13;100.00;64086.75;5050460;28;20035;-80
2021/05/13 10:27:43;;;;;;;10.52;6.25;;;;;;;-144.13;100.00;64086.75;5062865;28;20107;-81
2021/05/13 10:30:14;;;;;;;30.08;14.55;;;;;;;-144.13;100.00;64086.75;5046578;28;20517;-80
2021/05/13 10:32:40;;;;;;;40.83;21.40;;;;;;;-144.13;100.00;64086.75;5052783;28;20032;-80
2021/05/13 10:35:09;;;;;;;23.02;14.60;;;;;;;-144.13;100.00;64086.75;5068355;28;20046;-79
2021/05/13 10:37:39;;;;;;;11.30;6.85;;;;;;;-144.13;100.00;64086.75;5068407;28;20029;-80
2021/05/13 10:42:35;;;;;;;35.22;18.88;;;;;;;-144.13;100.00;64086.75;5065708;28;20032;-79
2021/05/13 10:45:21;;;;;;;16.73;10.15;;;;;;;-144.13;100.00;64086.75;5046043;28;20035;-81
2021/05/13 10:48:15;;;;;;;12.43;7.05;;;;;;;-144.13;100.00;64086.75;5047363;28;20017;-81
2021/05/13 10:51:02;;;;;;;10.85;6.53;;;;;;;-144.13;100.00;64086.75;5060224;28;20036;-80
2021/05/13 10:53:34;;;;;;;8.80;5.60;;;;;;;-144.13;100.00;64086.75;5043361;28;20059;-81
2021/05/13 10:56:23;;;;;;;10.05;5.55;;;;;;;-144.13;100.00;64086.75;5056853;28;20402;-80
2021/05/13 10:58:59;;;;;;;9.75;6.07;;;;;;;-144.13;100.00;64086.75;5045295;28;20036;-80
2021/05/13 11:01:53;;;;;;;8.57;5.15;;;;;;;-144.13;100.00;64086.75;5061265;28;20039;-81
2021/05/13 11:06:59;;;;;;;9.85;5.90;;;;;;;-144.13;100.00;64086.75;5068003;28;20039;-80
2021/05/13 11:12:08;;;;;;;10.07;5.57;;;;;;;-144.13;100.00;64086.75;5063498;28;20051;-81
2021/05/13 11:14:35;;;;;;;10.88;5.43;;;;;;;-144.13;100.00;64086.75;5060137;28;20135;-81
2021/05/13 11:17:04;;;;;;;10.43;5.95;;;;;;;-144.13;100.00;64086.75;5059108;28;20037;-81
2021/05/13 11:19:30;;;;;;;9.43;5.53;;;;;;;-144.13;100.00;64086.75;5054492;28;20020;-82
2021/05/13 11:21:59;;;;;;;13.20;6.28;;;;;;;-144.13;100.00;64086.75;5048106;28;20093;-82
2021/05/13 11:24:31;;;;;;;9.88;5.90;;;;;;;-144.13;100.00;64086.75;5062451;28;20490;-83
2021/05/13 11:26:57;;;;;;;11.52;6.22;;;;;;;-144.13;100.00;64086.75;5067192;28;20398;-83
2021/05/13 11:29:22;;;;;;;12.27;6.38;;;;;;;-144.13;100.00;64086.75;5051455;28;20025;-83